createdAt,value
2022-12-14T00:01:49.552Z,-3.35
2022-12-14T00:04:17.981Z,-3.11
2022-12-14T00:06:46.118Z,-3.02
2022-12-14T00:09:13.841Z,-3.19
2022-12-14T00:11:41.590Z,-3.33
2022-12-14T00:14:09.456Z,-3.05
2022-12-14T00:16:38.654Z,-3.25
2022-12-14T00:19:06.430Z,-3.10
2022-12-14T00:21:34.369Z,-3.11
2022-12-14T00:24:02.370Z,-3.23
2022-12-14T00:26:31.931Z,-3.25
2022-12-14T00:29:02.216Z,-3.19
2022-12-14T00:31:33.169Z,-3.19
2022-12-14T00:34:02.335Z,-3.20
2022-12-14T00:36:31.448Z,-3.32
2022-12-14T00:38:59.877Z,-3.26
2022-12-14T00:41:27.723Z,-3.69
2022-12-14T00:43:55.470Z,-3.98
2022-12-14T00:46:23.284Z,-3.37
2022-12-14T00:48:51.136Z,-4.10
2022-12-14T00:51:20.237Z,-3.45
2022-12-14T00:53:47.951Z,-3.53
2022-12-14T00:56:15.658Z,-3.51
2022-12-14T00:58:43.575Z,-3.80
2022-12-14T01:01:13.532Z,-3.58
2022-12-14T01:03:43.120Z,-3.81
2022-12-14T01:06:15.573Z,-3.61
2022-12-14T01:08:44.751Z,-3.58
2022-12-14T01:11:13.306Z,-3.58
2022-12-14T01:13:42.019Z,-3.59
2022-12-14T01:16:11.301Z,-3.93
2022-12-14T01:18:40.763Z,-3.54
2022-12-14T01:21:16.285Z,-3.72
2022-12-14T01:23:46.628Z,-3.54
2022-12-14T01:26:16.441Z,-3.50
2022-12-14T01:28:44.611Z,-3.49
2022-12-14T01:31:14.432Z,-3.48
2022-12-14T01:33:43.290Z,-3.44
2022-12-14T01:36:14.342Z,-3.44
2022-12-14T01:38:42.475Z,-3.50
2022-12-14T01:41:26.477Z,-3.38
2022-12-14T01:43:55.499Z,-3.34
2022-12-14T01:46:29.212Z,-3.35
2022-12-14T01:49:02.571Z,-3.35
2022-12-14T01:51:32.534Z,-3.34
2022-12-14T01:54:02.537Z,-3.32
2022-12-14T01:56:33.439Z,-3.38
2022-12-14T01:59:05.295Z,-3.30
2022-12-14T02:01:33.344Z,-3.28
2022-12-14T02:04:02.733Z,-3.30
2022-12-14T02:06:35.878Z,-3.31
2022-12-14T02:09:07.176Z,-3.36
2022-12-14T02:11:45.146Z,-3.42
2022-12-14T02:14:13.275Z,-3.35
2022-12-14T02:16:42.228Z,-3.38
2022-12-14T02:19:10.295Z,-3.42
2022-12-14T02:21:59.756Z,-3.47
2022-12-14T02:24:48.370Z,-3.53
2022-12-14T02:28:03.777Z,-3.53
2022-12-14T02:30:37.826Z,-3.69
2022-12-14T02:33:20.673Z,-3.81
2022-12-14T02:35:52.659Z,-3.66
2022-12-14T02:38:38.770Z,-3.93
2022-12-14T02:41:13.907Z,-3.87
2022-12-14T02:43:50.358Z,-3.80
2022-12-14T02:46:26.010Z,-3.85
2022-12-14T02:49:00.236Z,-4.00
2022-12-14T02:51:40.745Z,-4.05
2022-12-14T02:54:14.808Z,-4.09
2022-12-14T02:56:48.117Z,-3.97
2022-12-14T02:59:17.258Z,-3.96
2022-12-14T03:01:48.947Z,-4.06
2022-12-14T03:04:18.079Z,-3.92
2022-12-14T03:06:54.336Z,-4.03
2022-12-14T03:09:22.189Z,-3.90
2022-12-14T03:11:55.207Z,-4.03
2022-12-14T03:14:28.256Z,-4.14
2022-12-14T03:17:03.269Z,-4.00
2022-12-14T03:19:36.373Z,-3.89
2022-12-14T03:22:09.707Z,-4.09
2022-12-14T03:24:42.085Z,-4.18
2022-12-14T03:27:17.560Z,-3.93
2022-12-14T03:29:50.729Z,-3.96
2022-12-14T03:32:22.790Z,-3.95
2022-12-14T03:34:56.394Z,-4.17
2022-12-14T03:37:31.460Z,-4.02
2022-12-14T03:39:59.431Z,-4.33
2022-12-14T03:42:34.759Z,-5.41
2022-12-14T03:45:07.596Z,-3.82
2022-12-14T03:47:56.921Z,-4.22
2022-12-14T03:50:29.184Z,-3.80
2022-12-14T03:53:06.947Z,-5.19
2022-12-14T03:55:42.480Z,-3.89
2022-12-14T03:58:25.281Z,-3.63
2022-12-14T04:00:58.847Z,-3.85
2022-12-14T04:03:33.222Z,-4.23
2022-12-14T04:06:06.812Z,-3.71
2022-12-14T04:08:42.386Z,-4.54
2022-12-14T04:11:32.948Z,-3.44
2022-12-14T04:14:24.511Z,-3.66
2022-12-14T04:17:12.525Z,-3.69
2022-12-14T04:19:49.509Z,-3.41
2022-12-14T04:22:22.245Z,-3.35
2022-12-14T04:25:15.388Z,-3.26
2022-12-14T04:27:46.907Z,-3.22
2022-12-14T04:30:14.856Z,-3.22
2022-12-14T04:32:47.229Z,-3.22
2022-12-14T04:35:22.390Z,-3.18
2022-12-14T04:37:53.525Z,-3.13
2022-12-14T04:40:24.574Z,-3.09
2022-12-14T04:42:56.273Z,-3.03
2022-12-14T04:45:29.090Z,-3.00
2022-12-14T04:48:04.239Z,-2.96
2022-12-14T04:50:36.942Z,-2.93
2022-12-14T04:53:11.136Z,-2.87
2022-12-14T04:55:44.647Z,-2.92
2022-12-14T04:58:17.757Z,-2.98
2022-12-14T05:00:58.834Z,-2.80
2022-12-14T05:03:31.634Z,-3.87
2022-12-14T05:06:14.284Z,-2.94
2022-12-14T05:08:58.293Z,-2.80
2022-12-14T05:14:27.849Z,-2.79
2022-12-14T05:16:56.388Z,-2.79
2022-12-14T05:19:26.373Z,-2.87
2022-12-14T05:21:56.312Z,-2.86
2022-12-14T05:24:24.317Z,-2.70
2022-12-14T05:26:52.178Z,-2.67
2022-12-14T05:29:19.912Z,-2.65
2022-12-14T05:31:49.533Z,-2.63
2022-12-14T05:34:18.090Z,-2.61
2022-12-14T05:36:45.910Z,-2.56
2022-12-14T05:39:15.539Z,-2.53
2022-12-14T05:41:43.803Z,-2.50
2022-12-14T05:44:12.340Z,-2.52
2022-12-14T05:46:40.066Z,-2.40
2022-12-14T05:49:07.774Z,-2.37
2022-12-14T05:51:36.337Z,-2.71
2022-12-14T05:54:04.303Z,-2.30
2022-12-14T05:56:33.479Z,-2.28
2022-12-14T05:59:02.443Z,-2.25
2022-12-14T06:01:30.291Z,-2.22
2022-12-14T06:03:58.191Z,-2.20
2022-12-14T06:06:26.069Z,-4.25
2022-12-14T06:08:53.818Z,-2.87
2022-12-14T06:11:23.631Z,-3.96
2022-12-14T06:13:52.962Z,-2.23
2022-12-14T06:16:23.696Z,-2.84
2022-12-14T06:18:53.227Z,-2.08
2022-12-14T06:21:23.538Z,-2.03
2022-12-14T06:23:51.252Z,-2.00
2022-12-14T06:26:19.271Z,-1.96
2022-12-14T06:28:48.570Z,-1.93
2022-12-14T06:31:19.873Z,-1.89
2022-12-14T06:33:49.001Z,-1.88
2022-12-14T06:36:23.525Z,-1.85
2022-12-14T06:38:52.584Z,-1.86
2022-12-14T06:41:21.621Z,-1.84
2022-12-14T06:43:49.838Z,-1.81
2022-12-14T06:46:21.243Z,-1.92
2022-12-14T06:48:50.936Z,-1.79
2022-12-14T06:51:18.890Z,-1.80
2022-12-14T06:53:46.656Z,-1.80
2022-12-14T06:56:17.509Z,-1.78
2022-12-14T06:58:46.256Z,-1.77
2022-12-14T07:01:15.610Z,-1.74
2022-12-14T07:03:48.619Z,-1.71
2022-12-14T07:06:16.683Z,-1.72
2022-12-14T07:08:44.701Z,-1.72
2022-12-14T07:11:14.860Z,-1.66
2022-12-14T07:13:43.374Z,-1.59
2022-12-14T07:16:14.828Z,-1.51
2022-12-14T07:18:42.662Z,-1.45
2022-12-14T07:21:13.700Z,-1.42
2022-12-14T07:23:42.791Z,-1.41
2022-12-14T07:26:14.226Z,-1.38
2022-12-14T07:28:43.151Z,-1.48
2022-12-14T07:31:14.800Z,-1.81
2022-12-14T07:33:42.756Z,-1.36
2022-12-14T07:36:14.162Z,-1.25
2022-12-14T07:38:43.679Z,-1.30
2022-12-14T07:41:16.542Z,-1.14
2022-12-14T07:43:49.884Z,-1.09
2022-12-14T07:46:20.103Z,-1.05
2022-12-14T07:48:49.235Z,-1.02
2022-12-14T07:51:20.572Z,-0.98
2022-12-14T07:53:49.082Z,-0.97
2022-12-14T07:56:19.386Z,-1.14
2022-12-14T07:58:47.441Z,-0.89
2022-12-14T08:01:17.243Z,-0.84
2022-12-14T08:03:47.470Z,-0.78
2022-12-14T08:06:16.444Z,-0.74
2022-12-14T08:08:46.250Z,-0.72
2022-12-14T08:11:14.822Z,-0.69
2022-12-14T08:13:43.340Z,-0.65
2022-12-14T08:16:13.446Z,-0.65
2022-12-14T08:18:41.424Z,-0.62
2022-12-14T08:21:12.491Z,-0.60
2022-12-14T08:23:41.311Z,-0.62
2022-12-14T08:26:10.418Z,-0.77
2022-12-14T08:28:38.163Z,-0.59
2022-12-14T08:31:07.493Z,-0.63
2022-12-14T08:33:36.394Z,-0.74
2022-12-14T08:36:09.562Z,-0.81
2022-12-14T08:38:37.722Z,-0.89
2022-12-14T08:41:06.233Z,-0.87
2022-12-14T08:43:35.801Z,-0.93
2022-12-14T08:46:04.681Z,-1.04
2022-12-14T08:48:32.897Z,-0.91
2022-12-14T08:51:04.349Z,-1.10
2022-12-14T08:53:32.856Z,-1.15
2022-12-14T08:56:05.955Z,-1.04
2022-12-14T08:58:35.694Z,-1.52
2022-12-14T09:01:05.188Z,-1.07
2022-12-14T09:03:33.624Z,-1.03
2022-12-14T09:06:05.479Z,-1.14
2022-12-14T09:08:33.627Z,-1.09
2022-12-14T09:11:01.903Z,-1.76
2022-12-14T09:13:30.228Z,-0.97
2022-12-14T09:16:02.332Z,-0.90
2022-12-14T09:18:31.217Z,-0.89
2022-12-14T09:20:59.366Z,-1.10
2022-12-14T09:23:29.387Z,-0.84
2022-12-14T09:26:01.811Z,-0.86
2022-12-14T09:28:30.409Z,-0.94
2022-12-14T09:31:01.351Z,-0.84
2022-12-14T09:33:30.541Z,-0.77
2022-12-14T09:36:03.127Z,-0.69
2022-12-14T09:38:32.736Z,-0.71
2022-12-14T09:41:07.090Z,-0.48
2022-12-14T09:43:41.315Z,-0.40
2022-12-14T09:46:22.303Z,-0.42
2022-12-14T09:48:52.003Z,-0.62
2022-12-14T09:51:22.296Z,-0.61
2022-12-14T09:53:59.233Z,-0.69
2022-12-14T09:56:29.864Z,-0.72
2022-12-14T09:59:00.332Z,-0.63
2022-12-14T10:04:53.631Z,-0.53
2022-12-14T10:07:34.193Z,-0.93
2022-12-14T10:10:05.918Z,-0.58
2022-12-14T10:12:48.553Z,-0.53
2022-12-14T10:15:25.582Z,-0.40
2022-12-14T10:18:56.799Z,-0.20
2022-12-14T10:21:12.844Z,-0.05
2022-12-14T10:23:46.611Z,0.16
2022-12-14T10:26:19.834Z,0.17
2022-12-14T10:28:57.708Z,0.23
2022-12-14T10:31:35.963Z,0.27
2022-12-14T10:34:18.392Z,0.32
2022-12-14T10:36:53.834Z,0.33
2022-12-14T10:39:42.198Z,0.31
2022-12-14T10:42:24.691Z,0.31
2022-12-14T10:45:31.746Z,0.31
2022-12-14T10:47:54.246Z,0.16
2022-12-14T10:50:34.336Z,0.04
2022-12-14T10:53:05.786Z,0.00
2022-12-14T10:55:37.169Z,-0.06
2022-12-14T10:58:05.123Z,-0.09
2022-12-14T11:00:32.850Z,-0.30
2022-12-14T11:03:01.070Z,-0.33
2022-12-14T11:05:37.753Z,-0.27
2022-12-14T11:08:07.180Z,-0.18
2022-12-14T11:10:36.256Z,-0.15
2022-12-14T11:13:06.855Z,-0.09
2022-12-14T11:15:37.652Z,-0.02
2022-12-14T11:18:20.245Z,0.00
2022-12-14T11:20:54.275Z,-0.08
2022-12-14T11:23:26.132Z,-0.25
2022-12-14T11:25:56.442Z,-0.06
2022-12-14T11:28:36.513Z,-0.10
2022-12-14T11:31:07.450Z,0.01
2022-12-14T11:33:40.191Z,0.09
2022-12-14T11:36:10.175Z,0.10
2022-12-14T11:38:38.208Z,-0.03
2022-12-14T11:41:11.398Z,0.17
2022-12-14T11:43:39.763Z,0.29
2022-12-14T11:46:07.725Z,0.42
2022-12-14T11:48:38.356Z,0.53
2022-12-14T11:51:13.027Z,0.59
2022-12-14T11:53:41.787Z,0.62
2022-12-14T11:56:15.411Z,0.63
2022-12-14T11:58:49.732Z,0.67
2022-12-14T12:01:20.988Z,0.72
2022-12-14T12:03:51.204Z,0.77
2022-12-14T12:06:23.721Z,0.83
2022-12-14T12:08:56.850Z,0.91
2022-12-14T12:11:28.464Z,0.95
2022-12-14T12:14:00.594Z,0.77
2022-12-14T12:16:30.086Z,0.99
2022-12-14T12:19:09.635Z,1.02
2022-12-14T12:21:44.517Z,1.08
2022-12-14T12:24:19.863Z,1.05
2022-12-14T12:26:51.858Z,0.97
2022-12-14T12:29:27.342Z,1.06
2022-12-14T12:31:58.661Z,1.09
2022-12-14T12:34:31.336Z,1.15
2022-12-14T12:37:25.766Z,1.14
2022-12-14T12:39:59.783Z,1.31
2022-12-14T12:42:36.836Z,1.38
2022-12-14T12:45:09.526Z,1.40
2022-12-14T12:47:47.785Z,1.24
2022-12-14T12:50:17.679Z,1.47
2022-12-14T12:53:00.872Z,1.48
2022-12-14T12:55:32.534Z,1.48
2022-12-14T12:58:05.047Z,1.45
2022-12-14T13:00:34.709Z,1.45
2022-12-14T13:03:11.495Z,1.43
2022-12-14T13:05:47.382Z,1.40
2022-12-14T13:08:24.390Z,1.44
2022-12-14T13:11:25.074Z,1.45
2022-12-14T13:13:47.876Z,1.46
2022-12-14T13:16:26.208Z,1.50
2022-12-14T13:19:18.914Z,1.52
2022-12-14T13:21:52.269Z,1.52
2022-12-14T13:24:22.841Z,1.50
2022-12-14T13:27:17.125Z,1.51
2022-12-14T13:30:03.484Z,1.51
2022-12-14T13:32:46.865Z,1.52
2022-12-14T13:35:38.532Z,1.55
2022-12-14T13:38:33.754Z,1.54
2022-12-14T13:41:17.237Z,1.55
2022-12-14T13:44:02.707Z,1.34
2022-12-14T13:46:31.438Z,1.57
2022-12-14T13:49:03.758Z,1.60
2022-12-14T13:51:35.243Z,1.41
2022-12-14T13:54:06.824Z,1.43
2022-12-14T13:56:38.824Z,1.22
2022-12-14T13:59:27.748Z,1.37
2022-12-14T14:01:59.461Z,1.32
2022-12-14T14:04:29.609Z,1.27
2022-12-14T14:07:19.032Z,1.26
2022-12-14T14:10:00.296Z,1.07
2022-12-14T14:12:45.850Z,1.08
2022-12-14T14:15:29.188Z,1.03
2022-12-14T14:18:06.684Z,1.01
2022-12-14T14:20:40.606Z,0.97
2022-12-14T14:23:37.100Z,0.95
2022-12-14T14:26:18.600Z,0.85
2022-12-14T14:28:54.722Z,0.79
2022-12-14T14:31:22.546Z,0.78
2022-12-14T14:33:56.413Z,0.78
2022-12-14T14:36:30.313Z,0.48
2022-12-14T14:39:01.920Z,0.59
2022-12-14T14:41:37.119Z,0.60
2022-12-14T14:44:10.276Z,0.82
2022-12-14T14:46:43.489Z,0.81
2022-12-14T14:49:25.425Z,0.53
2022-12-14T14:51:53.130Z,0.77
2022-12-14T14:57:35.171Z,0.70
2022-12-14T15:00:06.999Z,0.55
2022-12-14T15:02:42.026Z,0.61
2022-12-14T15:05:41.476Z,0.52
2022-12-14T15:08:15.246Z,0.54
2022-12-14T15:10:45.974Z,0.51
2022-12-14T15:13:19.891Z,0.48
2022-12-14T15:15:52.908Z,0.32
2022-12-14T15:18:23.363Z,0.42
2022-12-14T15:20:57.005Z,0.36
2022-12-14T15:23:25.546Z,0.33
2022-12-14T15:25:58.169Z,0.30
2022-12-14T15:28:27.993Z,0.27
2022-12-14T15:30:58.511Z,0.24
2022-12-14T15:33:30.443Z,0.20
2022-12-14T15:36:04.734Z,0.09
2022-12-14T15:38:34.568Z,0.17
2022-12-14T15:41:05.801Z,0.13
2022-12-14T15:43:34.573Z,0.09
2022-12-14T15:46:03.951Z,0.07
2022-12-14T15:48:35.783Z,-0.37
2022-12-14T15:51:06.120Z,0.05
2022-12-14T15:53:36.398Z,0.03
2022-12-14T15:56:17.497Z,0.04
2022-12-14T15:58:46.290Z,-0.09
2022-12-14T16:01:22.256Z,0.03
2022-12-14T16:03:52.790Z,0.03
2022-12-14T16:06:21.289Z,0.04
2022-12-14T16:08:55.446Z,0.04
2022-12-14T16:11:26.395Z,0.04
2022-12-14T16:13:57.905Z,0.04
2022-12-14T16:16:27.221Z,0.03
2022-12-14T16:19:08.655Z,-0.09
2022-12-14T16:21:47.482Z,-0.02
2022-12-14T16:24:24.283Z,-0.04
2022-12-14T16:26:58.115Z,-0.09
2022-12-14T16:29:28.617Z,-0.14
2022-12-14T16:32:06.847Z,-0.14
2022-12-14T16:34:35.121Z,-0.13
2022-12-14T16:37:31.589Z,-0.15
2022-12-14T16:39:53.721Z,-0.16
2022-12-14T16:42:23.798Z,-0.23
2022-12-14T16:44:53.875Z,-0.29
2022-12-14T16:47:29.015Z,-0.39
2022-12-14T16:49:59.655Z,-0.44
2022-12-14T16:52:30.749Z,-1.09
2022-12-14T16:55:11.788Z,-2.17
2022-12-14T16:57:42.309Z,-3.08
2022-12-14T17:00:21.491Z,-3.04
2022-12-14T17:02:57.529Z,-3.70
2022-12-14T17:05:29.852Z,-1.34
2022-12-14T17:08:01.045Z,-2.03
2022-12-14T17:10:30.515Z,-1.66
2022-12-14T17:12:59.386Z,-3.17
2022-12-14T17:15:29.474Z,-2.42
2022-12-14T17:18:10.520Z,-2.19
2022-12-14T17:20:59.263Z,-2.55
2022-12-14T17:23:35.124Z,-2.64
2022-12-14T17:26:23.602Z,-2.84
2022-12-14T17:28:52.030Z,-3.30
2022-12-14T17:31:25.077Z,-3.35
2022-12-14T17:33:57.751Z,-3.42
2022-12-14T17:36:26.166Z,-3.17
2022-12-14T17:39:13.021Z,-3.53
2022-12-14T17:42:11.664Z,-3.42
2022-12-14T17:45:12.830Z,-3.35
2022-12-14T17:47:48.972Z,-3.42
2022-12-14T17:50:30.977Z,-3.72
2022-12-14T17:53:00.181Z,-3.97
2022-12-14T17:55:29.739Z,-3.66
2022-12-14T17:58:01.305Z,-4.10
2022-12-14T18:01:00.143Z,-5.18
2022-12-14T18:03:30.653Z,-4.11
2022-12-14T18:06:02.945Z,-4.91
2022-12-14T18:08:31.250Z,-4.33
2022-12-14T18:11:01.383Z,-4.88
2022-12-14T18:13:31.180Z,-4.82
2022-12-14T18:16:00.418Z,-4.99
2022-12-14T18:18:30.568Z,-5.50
2022-12-14T18:21:02.502Z,-6.18
2022-12-14T18:23:34.050Z,-5.67
2022-12-14T18:26:05.156Z,-5.02
2022-12-14T18:28:33.486Z,-5.09
2022-12-14T18:31:05.270Z,-5.54
2022-12-14T18:33:35.104Z,-5.30
2022-12-14T18:36:05.306Z,-5.65
2022-12-14T18:38:33.178Z,-7.46
2022-12-14T18:41:03.378Z,-5.94
2022-12-14T18:43:32.992Z,-7.05
2022-12-14T18:46:01.907Z,-6.02
2022-12-14T18:48:30.035Z,-5.74
2022-12-14T18:50:57.911Z,-6.53
2022-12-14T18:53:28.135Z,-6.72
2022-12-14T18:55:56.375Z,-9.51
2022-12-14T18:58:26.187Z,-6.31
2022-12-14T19:00:56.809Z,-6.81
2022-12-14T19:03:29.316Z,-6.13
2022-12-14T19:06:26.740Z,-6.18
2022-12-14T19:08:54.169Z,-7.88
2022-12-14T19:11:31.486Z,-6.33
2022-12-14T19:14:00.122Z,-7.47
2022-12-14T19:16:28.395Z,-6.42
2022-12-14T19:18:56.637Z,-7.49
2022-12-14T19:21:25.362Z,-6.54
2022-12-14T19:23:55.641Z,-6.77
2022-12-14T19:26:24.638Z,-7.48
2022-12-14T19:28:52.518Z,-7.31
2022-12-14T20:05:57.662Z,-11.76
2022-12-14T20:14:49.493Z,-12.37
2022-12-14T20:49:53.747Z,-12.79
2022-12-14T21:21:49.865Z,-8.97
2022-12-14T21:37:50.534Z,-12.56
2022-12-14T21:57:16.041Z,-8.58
2022-12-14T22:26:37.983Z,-10.10
2022-12-14T22:54:39.437Z,-7.82
2022-12-14T22:57:11.021Z,-7.79
2022-12-14T22:59:44.074Z,-7.92
2022-12-14T23:02:12.163Z,-7.71
2022-12-14T23:04:40.590Z,-7.71
2022-12-14T23:07:08.404Z,-7.68
2022-12-14T23:09:53.467Z,-7.67
2022-12-14T23:12:40.082Z,-7.75
2022-12-14T23:15:25.946Z,-7.72
2022-12-14T23:18:14.022Z,-7.73
2022-12-14T23:20:59.146Z,-8.23
2022-12-14T23:23:44.371Z,-7.70
2022-12-14T23:26:29.540Z,-7.68
2022-12-14T23:29:16.132Z,-7.65
2022-12-14T23:32:01.530Z,-7.77
2022-12-14T23:34:47.921Z,-8.03
2022-12-14T23:37:33.564Z,-7.48
2022-12-14T23:40:18.731Z,-7.43
2022-12-14T23:43:04.004Z,-8.27
2022-12-14T23:45:50.753Z,-7.31
2022-12-14T23:48:36.036Z,-7.25
2022-12-14T23:51:21.779Z,-7.17
2022-12-14T23:54:07.079Z,-7.10
2022-12-14T23:56:53.004Z,-7.08
2022-12-14T23:59:38.157Z,-7.33
